createdAt,value
2022-12-29T00:01:56.729Z,10.45
2022-12-29T00:04:23.375Z,10.48
2022-12-29T00:06:50.006Z,10.50
2022-12-29T00:09:17.695Z,10.53
2022-12-29T00:11:44.202Z,10.55
2022-12-29T00:14:30.665Z,10.57
2022-12-29T00:16:57.695Z,10.58
2022-12-29T00:19:43.649Z,10.60
2022-12-29T00:22:33.423Z,10.62
2022-12-29T00:25:01.269Z,10.66
2022-12-29T00:27:48.194Z,10.66
2022-12-29T00:30:39.042Z,10.69
2022-12-29T00:33:36.377Z,10.71
2022-12-29T00:36:10.169Z,10.70
2022-12-29T00:38:57.613Z,10.71
2022-12-29T00:41:42.730Z,10.73
2022-12-29T00:44:13.565Z,10.72
2022-12-29T00:46:42.577Z,10.75
2022-12-29T00:49:30.044Z,10.74
2022-12-29T00:51:59.339Z,10.76
2022-12-29T00:54:26.218Z,10.77
2022-12-29T00:56:53.789Z,10.77
2022-12-29T00:59:20.945Z,10.78
2022-12-29T01:01:49.019Z,10.79
2022-12-29T01:04:15.723Z,10.77
2022-12-29T01:06:42.456Z,10.78
2022-12-29T01:09:28.603Z,10.78
2022-12-29T01:11:55.836Z,10.78
2022-12-29T01:14:23.711Z,10.77
2022-12-29T01:16:51.164Z,10.76
2022-12-29T01:19:18.924Z,10.74
2022-12-29T01:21:46.715Z,10.72
2022-12-29T01:24:13.465Z,10.67
2022-12-29T01:26:40.741Z,10.64
2022-12-29T01:29:07.547Z,10.58
2022-12-29T01:31:34.102Z,10.53
2022-12-29T01:34:00.839Z,10.48
2022-12-29T01:36:27.551Z,10.44
2022-12-29T01:38:54.129Z,10.39
2022-12-29T01:41:20.750Z,10.37
2022-12-29T01:43:48.738Z,10.36
2022-12-29T01:46:26.971Z,10.33
2022-12-29T01:49:10.975Z,10.29
2022-12-29T01:51:46.485Z,10.25
2022-12-29T01:54:20.871Z,10.25
2022-12-29T01:56:48.574Z,10.24
2022-12-29T01:59:23.013Z,10.22
2022-12-29T02:01:50.756Z,10.22
2022-12-29T02:04:18.089Z,10.23
2022-12-29T02:06:52.305Z,10.22
2022-12-29T02:09:19.280Z,10.23
2022-12-29T02:11:46.407Z,10.21
2022-12-29T02:14:14.698Z,10.20
2022-12-29T02:17:04.625Z,10.22
2022-12-29T02:19:59.704Z,10.23
2022-12-29T02:22:43.710Z,10.23
2022-12-29T02:25:59.463Z,10.23
2022-12-29T02:28:55.172Z,10.23
2022-12-29T02:31:36.391Z,10.23
2022-12-29T02:34:27.626Z,10.23
2022-12-29T02:37:23.637Z,10.25
2022-12-29T02:40:29.099Z,10.24
2022-12-29T02:43:24.705Z,10.24
2022-12-29T02:46:02.030Z,10.23
2022-12-29T02:48:34.882Z,10.24
2022-12-29T02:51:07.403Z,10.23
2022-12-29T02:53:55.523Z,10.22
2022-12-29T02:56:22.484Z,10.23
2022-12-29T02:58:49.159Z,10.23
2022-12-29T03:02:10.711Z,10.23
2022-12-29T03:05:18.434Z,10.24
2022-12-29T03:07:49.854Z,10.21
2022-12-29T03:10:42.428Z,10.21
2022-12-29T03:13:45.269Z,10.19
2022-12-29T03:16:23.265Z,10.18
2022-12-29T03:19:01.559Z,10.17
2022-12-29T03:21:57.458Z,10.18
2022-12-29T03:24:29.825Z,10.17
2022-12-29T03:27:00.211Z,10.17
2022-12-29T03:29:29.055Z,10.17
2022-12-29T03:31:56.847Z,10.17
2022-12-29T03:34:25.182Z,10.16
2022-12-29T03:37:01.074Z,10.15
2022-12-29T03:39:28.017Z,10.13
2022-12-29T03:42:00.851Z,10.11
2022-12-29T03:44:37.268Z,10.09
2022-12-29T03:47:05.012Z,10.08
2022-12-29T03:49:31.464Z,10.05
2022-12-29T03:51:58.307Z,10.06
2022-12-29T03:54:25.254Z,10.06
2022-12-29T03:56:52.022Z,10.04
2022-12-29T03:59:18.841Z,10.02
2022-12-29T04:01:45.415Z,10.01
2022-12-29T04:04:12.026Z,9.99
2022-12-29T04:06:38.568Z,9.98
2022-12-29T04:09:05.415Z,9.96
2022-12-29T04:11:33.448Z,9.93
2022-12-29T04:14:01.241Z,9.92
2022-12-29T04:16:27.871Z,9.89
2022-12-29T04:18:54.534Z,9.90
2022-12-29T04:21:21.411Z,9.91
2022-12-29T04:23:48.104Z,9.90
2022-12-29T04:26:14.704Z,9.91
2022-12-29T04:28:41.415Z,9.94
2022-12-29T04:31:08.273Z,9.95
2022-12-29T04:33:35.038Z,9.95
2022-12-29T04:36:01.765Z,9.95
2022-12-29T04:38:28.731Z,9.95
2022-12-29T04:40:55.293Z,9.97
2022-12-29T04:43:23.134Z,9.98
2022-12-29T04:45:49.925Z,9.98
2022-12-29T04:48:16.971Z,10.01
2022-12-29T04:50:45.373Z,10.00
2022-12-29T04:53:11.997Z,9.97
2022-12-29T04:55:38.682Z,9.99
2022-12-29T04:58:05.352Z,9.96
2022-12-29T05:00:31.970Z,9.95
2022-12-29T05:02:58.694Z,9.96
2022-12-29T05:05:25.583Z,9.94
2022-12-29T05:07:52.388Z,9.95
2022-12-29T05:10:19.226Z,9.95
2022-12-29T05:12:46.016Z,9.95
2022-12-29T05:15:12.803Z,9.95
2022-12-29T05:17:39.340Z,9.93
2022-12-29T05:20:07.282Z,9.93
2022-12-29T05:22:35.490Z,9.95
2022-12-29T05:25:02.040Z,9.92
2022-12-29T05:27:29.023Z,9.91
2022-12-29T05:29:55.603Z,9.90
2022-12-29T05:32:22.066Z,9.90
2022-12-29T05:34:48.583Z,9.90
2022-12-29T05:37:15.351Z,9.90
2022-12-29T05:39:42.153Z,9.90
2022-12-29T05:42:11.051Z,9.90
2022-12-29T05:44:37.696Z,9.91
2022-12-29T05:47:04.431Z,9.88
2022-12-29T05:49:30.975Z,9.89
2022-12-29T05:51:57.830Z,9.90
2022-12-29T05:54:24.444Z,9.89
2022-12-29T05:56:50.918Z,9.88
2022-12-29T05:59:17.623Z,9.89
2022-12-29T06:01:45.244Z,9.88
2022-12-29T06:04:12.079Z,9.88
2022-12-29T06:06:39.870Z,9.86
2022-12-29T06:09:06.425Z,9.87
2022-12-29T06:11:33.729Z,9.87
2022-12-29T06:14:00.415Z,9.85
2022-12-29T06:16:26.961Z,9.83
2022-12-29T06:18:53.656Z,9.77
2022-12-29T06:21:20.232Z,9.73
2022-12-29T06:23:46.821Z,9.70
2022-12-29T06:26:13.484Z,9.66
2022-12-29T06:28:40.854Z,9.65
2022-12-29T06:31:11.075Z,9.60
2022-12-29T06:33:38.680Z,9.53
2022-12-29T06:36:05.557Z,9.49
2022-12-29T06:38:32.250Z,9.44
2022-12-29T06:40:58.788Z,9.41
2022-12-29T06:43:25.437Z,9.37
2022-12-29T06:45:52.467Z,9.36
2022-12-29T06:48:18.984Z,9.31
2022-12-29T06:50:45.520Z,9.30
2022-12-29T06:53:11.992Z,9.29
2022-12-29T06:55:38.527Z,9.28
2022-12-29T06:58:05.134Z,9.28
2022-12-29T07:00:31.668Z,9.28
2022-12-29T07:02:59.275Z,9.33
2022-12-29T07:05:28.622Z,9.32
2022-12-29T07:07:56.330Z,9.35
2022-12-29T07:10:23.040Z,9.35
2022-12-29T07:12:49.695Z,9.34
2022-12-29T07:15:16.484Z,9.27
2022-12-29T07:17:43.044Z,9.21
2022-12-29T07:20:11.018Z,9.14
2022-12-29T07:22:37.521Z,9.09
2022-12-29T07:25:04.388Z,9.04
2022-12-29T07:27:31.031Z,8.99
2022-12-29T07:29:57.572Z,8.94
2022-12-29T07:32:24.197Z,8.89
2022-12-29T07:34:50.837Z,8.89
2022-12-29T07:37:17.430Z,8.89
2022-12-29T07:39:44.142Z,8.90
2022-12-29T07:42:10.732Z,8.93
2022-12-29T07:44:37.809Z,8.96
2022-12-29T07:47:04.548Z,9.03
2022-12-29T07:49:31.105Z,9.08
2022-12-29T07:51:57.606Z,9.16
2022-12-29T07:54:24.746Z,9.21
2022-12-29T07:56:51.837Z,9.28
2022-12-29T07:59:18.710Z,9.37
2022-12-29T08:01:45.360Z,9.45
2022-12-29T08:04:13.605Z,9.52
2022-12-29T08:06:40.202Z,9.58
2022-12-29T08:09:16.410Z,9.62
2022-12-29T08:11:45.247Z,9.69
2022-12-29T08:14:11.964Z,9.71
2022-12-29T08:16:38.674Z,9.81
2022-12-29T08:19:06.108Z,9.84
2022-12-29T08:21:32.797Z,9.95
2022-12-29T08:24:00.151Z,10.00
2022-12-29T08:26:27.021Z,10.06
2022-12-29T08:28:55.252Z,10.11
2022-12-29T08:31:22.261Z,10.13
2022-12-29T08:33:48.900Z,10.17
2022-12-29T08:36:15.694Z,10.24
2022-12-29T08:38:42.212Z,10.26
2022-12-29T08:41:08.803Z,10.31
2022-12-29T08:43:35.581Z,10.38
2022-12-29T08:46:02.394Z,10.43
2022-12-29T08:48:28.964Z,10.45
2022-12-29T08:50:55.892Z,10.47
2022-12-29T08:53:22.594Z,10.50
2022-12-29T08:56:04.736Z,10.55
2022-12-29T08:58:32.719Z,10.53
2022-12-29T09:01:00.142Z,10.55
2022-12-29T09:04:03.777Z,10.54
2022-12-29T09:06:14.717Z,10.56
2022-12-29T09:08:41.398Z,10.59
2022-12-29T09:11:20.058Z,10.58
2022-12-29T09:13:47.246Z,10.62
2022-12-29T09:16:14.210Z,10.60
2022-12-29T09:18:40.933Z,10.65
2022-12-29T09:21:08.801Z,10.65
2022-12-29T09:23:35.843Z,10.65
2022-12-29T09:26:03.105Z,10.69
2022-12-29T09:28:30.355Z,10.65
2022-12-29T09:30:58.588Z,10.67
2022-12-29T09:33:25.907Z,10.67
2022-12-29T09:35:59.622Z,10.66
2022-12-29T09:38:27.692Z,10.61
2022-12-29T09:41:01.016Z,10.57
2022-12-29T09:44:07.678Z,10.50
2022-12-29T09:46:47.376Z,10.45
2022-12-29T09:49:50.698Z,10.42
2022-12-29T09:52:26.862Z,10.36
2022-12-29T09:55:03.832Z,10.35
2022-12-29T09:57:38.911Z,10.26
2022-12-29T10:00:15.579Z,10.25
2022-12-29T10:02:47.378Z,10.23
2022-12-29T10:05:32.715Z,10.23
2022-12-29T10:08:51.625Z,10.19
2022-12-29T10:11:36.702Z,10.12
2022-12-29T10:14:52.277Z,10.13
2022-12-29T10:17:34.659Z,10.19
2022-12-29T10:20:47.650Z,10.19
2022-12-29T10:23:39.948Z,10.21
2022-12-29T10:26:13.828Z,10.18
2022-12-29T10:37:34.185Z,10.23
2022-12-29T10:40:20.029Z,10.22
2022-12-29T10:42:52.639Z,10.21
2022-12-29T10:45:21.156Z,10.27
2022-12-29T10:48:01.784Z,10.27
2022-12-29T10:50:30.551Z,10.24
2022-12-29T10:53:01.615Z,10.30
2022-12-29T10:55:34.094Z,10.35
2022-12-29T10:58:05.800Z,10.33
2022-12-29T11:00:33.728Z,10.34
2022-12-29T11:03:43.931Z,10.36
2022-12-29T11:06:19.498Z,10.36
2022-12-29T11:08:57.495Z,10.31
2022-12-29T11:11:37.812Z,10.32
2022-12-29T11:14:15.043Z,10.36
2022-12-29T11:16:43.011Z,10.30
2022-12-29T11:19:24.828Z,10.31
2022-12-29T11:21:52.097Z,10.32
2022-12-29T11:24:27.232Z,10.39
2022-12-29T11:26:58.615Z,10.43
2022-12-29T11:29:49.097Z,10.44
2022-12-29T11:32:28.161Z,10.49
2022-12-29T11:34:55.299Z,10.49
2022-12-29T11:37:31.480Z,10.52
2022-12-29T11:40:04.437Z,10.55
2022-12-29T11:42:40.623Z,10.53
2022-12-29T11:45:22.830Z,10.56
2022-12-29T11:47:53.174Z,10.52
2022-12-29T11:50:23.697Z,10.50
2022-12-29T11:52:58.210Z,10.52
2022-12-29T11:55:28.126Z,10.51
2022-12-29T11:57:56.760Z,10.54
2022-12-29T12:00:28.774Z,10.57
2022-12-29T12:03:05.867Z,10.55
2022-12-29T12:05:56.087Z,10.55
2022-12-29T12:08:37.400Z,10.52
2022-12-29T12:11:39.045Z,10.51
2022-12-29T12:14:33.963Z,10.54
2022-12-29T12:17:05.794Z,10.55
2022-12-29T12:19:37.792Z,10.43
2022-12-29T12:22:14.976Z,10.28
2022-12-29T12:25:02.776Z,10.19
2022-12-29T12:27:42.701Z,10.20
2022-12-29T12:30:19.321Z,10.21
2022-12-29T12:32:59.687Z,10.27
2022-12-29T12:35:45.231Z,10.29
2022-12-29T12:38:53.309Z,10.31
2022-12-29T12:42:05.483Z,10.38
2022-12-29T12:44:47.523Z,10.37
2022-12-29T12:47:35.693Z,10.41
2022-12-29T12:50:20.153Z,10.48
2022-12-29T12:53:17.651Z,10.53
2022-12-29T12:56:30.183Z,10.51
2022-12-29T12:59:13.481Z,10.51
2022-12-29T13:01:56.746Z,10.54
2022-12-29T13:05:05.559Z,10.58
2022-12-29T13:08:15.389Z,10.61
2022-12-29T13:11:06.829Z,10.63
2022-12-29T13:14:15.153Z,10.75
2022-12-29T13:17:19.036Z,10.71
2022-12-29T13:19:59.429Z,10.70
2022-12-29T13:22:38.640Z,10.77
2022-12-29T13:25:37.531Z,10.79
2022-12-29T13:28:58.646Z,10.79
2022-12-29T13:32:01.616Z,10.78
2022-12-29T13:34:50.274Z,10.78
2022-12-29T13:37:21.614Z,10.76
2022-12-29T13:39:56.676Z,10.75
2022-12-29T13:42:25.558Z,10.81
2022-12-29T13:45:03.296Z,10.81
2022-12-29T13:47:36.616Z,10.82
2022-12-29T13:50:07.825Z,10.86
2022-12-29T13:53:03.027Z,10.85
2022-12-29T13:55:38.253Z,10.84
2022-12-29T13:58:14.177Z,10.86
2022-12-29T14:00:56.419Z,10.87
2022-12-29T14:03:49.408Z,10.86
2022-12-29T14:06:20.990Z,10.89
2022-12-29T14:08:49.592Z,10.85
2022-12-29T14:11:18.897Z,10.87
2022-12-29T14:13:48.502Z,10.88
2022-12-29T14:16:34.754Z,10.85
2022-12-29T14:19:15.584Z,10.75
2022-12-29T14:21:50.616Z,10.76
2022-12-29T14:24:49.577Z,10.64
2022-12-29T14:27:43.861Z,10.59
2022-12-29T14:30:48.875Z,10.48
2022-12-29T14:33:16.808Z,10.42
2022-12-29T14:35:46.936Z,10.33
2022-12-29T14:38:28.166Z,10.34
2022-12-29T14:41:32.881Z,10.31
2022-12-29T14:44:07.866Z,10.25
2022-12-29T14:46:56.365Z,10.16
2022-12-29T14:49:26.426Z,10.05
2022-12-29T14:51:56.064Z,10.02
2022-12-29T14:54:58.825Z,9.89
2022-12-29T14:57:32.307Z,9.87
2022-12-29T15:00:06.970Z,9.89
2022-12-29T15:02:39.699Z,9.90
2022-12-29T15:05:20.797Z,9.90
2022-12-29T15:07:48.244Z,9.89
2022-12-29T15:10:18.786Z,9.87
2022-12-29T15:12:53.562Z,9.85
2022-12-29T15:15:27.092Z,9.84
2022-12-29T15:17:54.276Z,9.87
2022-12-29T15:20:32.461Z,9.86
2022-12-29T15:23:04.207Z,9.90
2022-12-29T15:25:32.049Z,9.92
2022-12-29T15:28:03.287Z,9.93
2022-12-29T15:30:30.091Z,9.93
2022-12-29T15:32:56.926Z,9.91
2022-12-29T15:35:43.761Z,9.98
2022-12-29T15:38:33.477Z,10.01
2022-12-29T15:41:07.630Z,9.99
2022-12-29T15:43:34.384Z,10.03
2022-12-29T15:46:02.813Z,10.02
2022-12-29T15:48:31.572Z,9.98
2022-12-29T15:50:59.616Z,9.99
2022-12-29T15:53:30.151Z,10.03
2022-12-29T15:56:03.754Z,10.04
2022-12-29T15:58:31.996Z,10.04
2022-12-29T16:01:01.018Z,10.05
2022-12-29T16:03:33.548Z,10.07
2022-12-29T16:06:39.729Z,10.08
2022-12-29T16:09:15.087Z,10.09
2022-12-29T16:11:46.734Z,10.09
2022-12-29T16:14:21.969Z,10.07
2022-12-29T16:16:52.345Z,10.05
2022-12-29T16:20:15.157Z,10.04
2022-12-29T16:22:44.859Z,10.08
2022-12-29T16:25:23.486Z,10.10
2022-12-29T16:27:51.042Z,10.09
2022-12-29T16:30:20.343Z,10.11
2022-12-29T16:32:49.570Z,10.11
2022-12-29T16:35:21.008Z,10.07
2022-12-29T16:37:48.468Z,10.09
2022-12-29T16:40:33.033Z,10.08
2022-12-29T16:43:04.955Z,10.11
2022-12-29T16:46:17.969Z,10.07
2022-12-29T16:48:55.089Z,10.09
2022-12-29T16:51:32.231Z,10.01
2022-12-29T16:54:00.446Z,10.00
2022-12-29T16:56:33.703Z,9.89
2022-12-29T16:59:23.513Z,9.91
2022-12-29T17:01:50.891Z,9.84
2022-12-29T17:04:17.676Z,9.79
2022-12-29T17:06:44.262Z,9.73
2022-12-29T17:09:18.036Z,9.70
2022-12-29T17:12:01.655Z,9.66
2022-12-29T17:14:44.419Z,9.61
2022-12-29T17:17:21.880Z,9.62
2022-12-29T17:20:03.504Z,9.55
2022-12-29T17:22:30.889Z,9.55
2022-12-29T17:25:00.149Z,9.51
2022-12-29T17:27:49.560Z,9.48
2022-12-29T17:30:19.851Z,9.43
2022-12-29T17:32:53.902Z,9.42
2022-12-29T17:35:22.534Z,9.41
2022-12-29T17:37:50.333Z,9.41
2022-12-29T17:40:19.912Z,9.39
2022-12-29T17:42:49.526Z,9.38
2022-12-29T17:45:19.646Z,9.36
2022-12-29T17:47:46.832Z,9.37
2022-12-29T17:50:16.139Z,9.36
2022-12-29T17:52:46.288Z,9.34
2022-12-29T17:55:42.003Z,9.31
2022-12-29T17:58:37.946Z,9.27
2022-12-29T18:01:06.304Z,9.26
2022-12-29T18:03:37.178Z,9.23
2022-12-29T18:06:06.645Z,9.22
2022-12-29T18:08:34.651Z,9.17
2022-12-29T18:11:01.408Z,9.19
2022-12-29T18:13:43.707Z,9.19
2022-12-29T18:16:13.233Z,9.19
2022-12-29T18:18:39.877Z,9.15
2022-12-29T18:21:17.321Z,9.17
2022-12-29T18:23:44.130Z,9.14
2022-12-29T18:26:24.005Z,9.10
2022-12-29T18:28:54.529Z,9.05
2022-12-29T18:31:25.943Z,8.99
2022-12-29T18:33:54.507Z,9.00
2022-12-29T18:36:21.703Z,8.98
2022-12-29T18:38:49.167Z,9.00
2022-12-29T18:41:19.641Z,8.99
2022-12-29T18:43:46.772Z,8.96
2022-12-29T18:46:18.758Z,8.96
2022-12-29T18:48:49.013Z,8.96
2022-12-29T18:51:19.658Z,8.90
2022-12-29T18:53:46.607Z,8.95
2022-12-29T18:56:13.791Z,8.96
2022-12-29T18:58:40.854Z,8.89
2022-12-29T19:01:17.290Z,8.91
2022-12-29T19:03:44.129Z,8.86
2022-12-29T19:06:10.688Z,8.89
2022-12-29T19:08:37.387Z,8.93
2022-12-29T19:11:04.246Z,8.88
2022-12-29T19:13:30.862Z,8.87
2022-12-29T19:15:57.996Z,8.86
2022-12-29T19:18:44.660Z,8.90
2022-12-29T19:21:13.249Z,8.90
2022-12-29T19:23:39.852Z,8.90
2022-12-29T19:26:06.651Z,8.87
2022-12-29T19:28:33.309Z,8.94
2022-12-29T19:31:01.876Z,8.90
2022-12-29T19:33:29.403Z,8.91
2022-12-29T19:36:01.405Z,8.89
2022-12-29T19:38:28.113Z,8.93
2022-12-29T19:40:56.541Z,8.91
2022-12-29T19:43:22.986Z,8.89
2022-12-29T19:45:51.361Z,8.90
2022-12-29T19:48:19.991Z,8.87
2022-12-29T19:50:46.804Z,8.87
2022-12-29T19:53:14.409Z,8.87
2022-12-29T19:55:45.085Z,8.81
2022-12-29T19:58:12.672Z,8.83
2022-12-29T20:00:43.214Z,8.84
2022-12-29T20:03:10.275Z,8.82
2022-12-29T20:05:37.346Z,8.81
2022-12-29T20:08:04.018Z,8.81
2022-12-29T20:10:30.847Z,8.80
2022-12-29T20:12:57.469Z,8.77
2022-12-29T20:15:24.002Z,8.78
2022-12-29T20:20:37.256Z,8.77
2022-12-29T20:23:03.959Z,8.77
2022-12-29T20:25:47.158Z,8.74
2022-12-29T20:28:15.718Z,8.69
2022-12-29T20:30:42.520Z,8.66
2022-12-29T20:33:09.357Z,8.67
2022-12-29T20:35:37.016Z,8.65
2022-12-29T20:38:04.500Z,8.63
2022-12-29T20:40:33.214Z,8.59
2022-12-29T20:42:59.753Z,8.61
2022-12-29T20:45:26.556Z,8.63
2022-12-29T20:47:53.249Z,8.67
2022-12-29T20:50:19.883Z,8.68
2022-12-29T20:52:47.023Z,8.68
2022-12-29T20:55:14.009Z,8.70
2022-12-29T20:58:14.127Z,8.73
2022-12-29T21:00:30.284Z,8.74
2022-12-29T21:02:58.291Z,8.75
2022-12-29T21:05:26.081Z,8.74
2022-12-29T21:07:53.810Z,8.69
2022-12-29T21:10:21.129Z,8.63
2022-12-29T21:12:48.681Z,8.62
2022-12-29T21:15:15.583Z,8.59
2022-12-29T21:17:43.548Z,8.52
2022-12-29T21:20:19.708Z,8.47
2022-12-29T21:22:47.737Z,8.41
2022-12-29T21:25:14.757Z,8.32
2022-12-29T21:27:44.415Z,8.27
2022-12-29T21:30:12.087Z,8.23
2022-12-29T21:32:39.117Z,8.19
2022-12-29T21:35:06.319Z,8.14
2022-12-29T21:37:33.067Z,8.07
2022-12-29T21:39:59.661Z,8.03
2022-12-29T21:42:28.932Z,7.97
2022-12-29T21:45:20.135Z,7.91
2022-12-29T21:48:06.022Z,7.83
2022-12-29T21:50:32.815Z,7.78
2022-12-29T21:52:59.795Z,7.74
2022-12-29T21:55:26.396Z,7.67
2022-12-29T21:58:11.472Z,7.62
2022-12-29T22:00:56.534Z,7.59
2022-12-29T22:03:41.783Z,7.55
2022-12-29T22:06:29.907Z,7.52
2022-12-29T22:09:15.116Z,7.47
2022-12-29T22:12:00.150Z,7.42
2022-12-29T22:14:26.793Z,7.39
2022-12-29T22:16:53.356Z,7.36
2022-12-29T22:19:19.924Z,7.30
2022-12-29T22:21:46.550Z,7.29
2022-12-29T22:24:13.115Z,7.27
2022-12-29T22:26:43.107Z,7.23
2022-12-29T22:29:10.716Z,7.21
2022-12-29T22:31:37.318Z,7.19
2022-12-29T22:34:05.102Z,7.16
2022-12-29T22:36:32.572Z,7.13
2022-12-29T22:38:59.350Z,7.11
2022-12-29T22:41:25.942Z,7.07
2022-12-29T22:43:52.720Z,7.03
2022-12-29T22:46:19.318Z,7.00
2022-12-29T22:48:46.358Z,6.98
2022-12-29T22:51:13.046Z,6.96
2022-12-29T22:53:40.978Z,6.96
2022-12-29T22:56:10.244Z,6.93
2022-12-29T22:58:40.425Z,6.92
2022-12-29T23:01:07.244Z,6.91
2022-12-29T23:03:33.805Z,6.87
2022-12-29T23:06:03.203Z,6.88
2022-12-29T23:08:33.719Z,6.86
2022-12-29T23:11:01.205Z,6.83
2022-12-29T23:13:28.473Z,6.81
2022-12-29T23:15:55.324Z,6.80
2022-12-29T23:18:21.917Z,6.80
2022-12-29T23:20:49.732Z,6.77
2022-12-29T23:23:39.573Z,6.77
2022-12-29T23:26:08.684Z,6.75
2022-12-29T23:28:35.272Z,6.75
2022-12-29T23:31:09.931Z,6.73
2022-12-29T23:33:36.868Z,6.75
2022-12-29T23:36:03.977Z,6.72
2022-12-29T23:38:30.572Z,6.73
2022-12-29T23:40:57.191Z,6.71
2022-12-29T23:43:24.014Z,6.69
2022-12-29T23:45:51.360Z,6.67
2022-12-29T23:48:18.968Z,6.66
2022-12-29T23:50:46.567Z,6.64
2022-12-29T23:53:13.534Z,6.61
2022-12-29T23:55:44.083Z,6.60
2022-12-29T23:58:11.326Z,6.61
